Loudonville, Ohio
Current Conditions -  °F | °C
As of 3:52 AM on Thursday 23 Oct 2014 (Local Time) from KMFD Reporting Station
Haze Haze  
Wind Chill: 36°   Ceiling: Unl
Heat Index: 41°   Visibility: 6mi
Dew Point: 41°   Wind: 7mph
Humidity: 100%   Direction: 300°WNW
Pressure: 30.21"   Gusts: NA
Location:  40.64°N, 82.23°W
Report Text: KMFD 230752Z 30006KT 6SM BR FEW010 05/05 A3021 RMK AO2 SLP238 T00500050
Loading
Personal Weather Stations






























Interactive Weather Map
Tropical Storm Tracking
New forecast layout! Learn more

10-Day Weather Forecast

Advertisements
Track Severe Weather on mobile